Погода Порламарна 2 недели

Сукре, Венесуэла

23 февраля-07 марта
  • 23февраля
    Сегодня
    +24°
    +33°
    Ясно и безоблачно
    ВремяПогодаТемператураВлажностьДавлениеВетер, м/сВероятность осадков
    02:00Практически безоблачно+26°C86 %757 мм3.9 м/с9 %
    05:00Небольшая облачность+24°C89 %758 мм4.3 м/с12 %
    08:00Практически безоблачно+27°C83 %759 мм4.7 м/с7 %
    11:00Ясно и безоблачно+30°C75 %760 мм4.8 м/с7 %
    14:00Ясно и безоблачно+33°C73 %758 мм6.2 м/с14 %
    17:00Ясно и безоблачно+30°C76 %757 мм6.0 м/с15 %
    20:00Ясно и безоблачно+27°C87 %758 мм5.9 м/с3 %
    23:00Ясно и безоблачно+27°C86 %759 мм6.0 м/с2 %
  • 24февраля
    Суббота
    +25°
    +32°
    Небольшая облачность
    ВремяПогодаТемператураВлажностьДавлениеВетер, м/сВероятность осадков
    02:00Ясно и безоблачно+26°C88 %758 мм6.6 м/с2 %
    05:00Ясно и безоблачно+25°C88 %758 мм6.8 м/с2 %
    08:00Ясно и безоблачно+27°C80 %760 мм6.9 м/с2 %
    11:00Небольшая облачность+30°C68 %760 мм7.2 м/с2 %
    14:00Небольшая облачность+32°C69 %758 мм7.8 м/с3 %
    17:00Ясно и безоблачно+29°C81 %757 мм7.8 м/с3 %
    20:00Ясно и безоблачно+27°C85 %758 мм7.0 м/с2 %
    23:00Небольшая облачность+26°C83 %759 мм7.2 м/с2 %
  • 25февраля
    Воскресенье
    +25°
    +33°
    Ясно и безоблачно
    ВремяПогодаТемператураВлажностьДавлениеВетер, м/сВероятность осадков
    02:00Небольшая облачность+26°C84 %758 мм7.2 м/с2 %
    05:00Практически безоблачно+25°C83 %759 мм6.7 м/с2 %
    08:00Ясно и безоблачно+28°C77 %760 мм6.2 м/с2 %
    11:00Ясно и безоблачно+30°C73 %761 мм6.4 м/с2 %
    14:00Ясно и безоблачно+33°C70 %758 мм7.0 м/с3 %
    17:00Ясно и безоблачно+30°C78 %757 мм6.9 м/с5 %
    20:00Ясно и безоблачно+27°C87 %758 мм7.1 м/с3 %
    23:00Ясно и безоблачно+27°C87 %759 мм6.3 м/с9 %
  • 26февраля
    Понедельник
    +23°
    +33°
    Практически безоблачно
    ВремяПогодаТемператураВлажностьДавлениеВетер, м/сВероятность осадков
    02:00Облачно с прояснениями+26°C87 %759 мм6.5 м/с39 %
    05:00Практически безоблачно+26°C87 %759 мм5.8 м/с46 %
    08:00Ясно и безоблачно+27°C82 %760 мм5.7 м/с37 %
    11:00Практически безоблачно+30°C74 %760 мм5.6 м/с25 %
    14:00Практически безоблачно+33°C73 %758 мм6.5 м/с13 %
    17:00Практически безоблачно+30°C80 %757 мм7.1 м/с9 %
    20:00Ясно и безоблачно+27°C87 %758 мм6.3 м/с7 %
    23:00Ясно и безоблачно+26°C86 %759 мм5.8 м/с32 %
  • 27февраля
    Вторник
    +25°
    +32°
    Небольшая облачность
    ВремяПогодаТемператураВлажностьДавлениеВетер, м/сВероятность осадков
    02:00Небольшая облачность+25°C85 %758 мм5.7 м/с43 %
    05:00Небольшая облачность и лёгкий дождик+24°C88 %758 мм5.5 м/с51 %
    08:00Небольшая облачность и лёгкий дождик+26°C82 %760 мм5.9 м/с44 %
    11:00Ясно и безоблачно+30°C74 %760 мм6.0 м/с35 %
    14:00Небольшая облачность+32°C69 %758 мм7.4 м/с8 %
    17:00Ясно и безоблачно+29°C77 %757 мм7.9 м/с3 %
    20:00Ясно и безоблачно+27°C80 %758 мм7.2 м/с3 %
    23:00Ясно и безоблачно+26°C81 %759 мм6.4 м/с7 %
Мы используем cookies
Соглашаюсь